Time;durP1;ratioP1;P1;durP2;ratioP2;P2;SDS_P1;SDS_P2;PMS_P1;PMS_P2;Temp;Humidity;BMP_temperature;BMP_pressure;BME280_temperature;BME280_humidity;BME280_pressure;Samples;Min_cycle;Max_cycle;Signal;HPM_P1;HPM_P2
2021/07/13 00:01:26;;;;;;;4.95;4.20;;;;;;;19.07;65.27;100608.69;5083430;28;20038;-67
2021/07/13 00:03:53;;;;;;;6.53;4.40;;;;;;;19.08;65.51;100605.13;5082173;28;20123;-67
2021/07/13 00:06:19;;;;;;;4.75;4.25;;;;;;;19.08;65.31;100610.38;5083247;28;20044;-67
2021/07/13 00:08:45;;;;;;;6.50;4.53;;;;;;;19.13;65.39;100604.94;5081921;28;20409;-66
2021/07/13 00:11:10;;;;;;;4.55;4.07;;;;;;;19.17;65.34;100602.13;5083267;28;20031;-66
2021/07/13 00:13:36;;;;;;;6.18;4.70;;;;;;;19.22;65.07;100595.84;5083303;28;20093;-67
2021/07/13 00:16:02;;;;;;;8.07;4.80;;;;;;;19.25;65.01;100590.44;5083253;28;20029;-66
2021/07/13 00:18:27;;;;;;;5.00;4.55;;;;;;;19.26;65.22;100598.28;5083349;28;20032;-66
2021/07/13 00:20:54;;;;;;;5.07;4.22;;;;;;;19.28;65.02;100582.41;5083379;28;20028;-66
2021/07/13 00:23:19;;;;;;;7.47;4.50;;;;;;;19.31;64.86;100595.44;5083040;28;20080;-66
2021/07/13 00:25:44;;;;;;;6.18;4.05;;;;;;;19.31;64.87;100588.38;5083023;28;20044;-65
2021/07/13 00:28:10;;;;;;;6.38;4.63;;;;;;;19.32;64.71;100587.47;5083197;28;20034;-65
2021/07/13 00:30:35;;;;;;;5.20;4.05;;;;;;;19.36;64.57;100588.19;5083031;28;20025;-65
2021/07/13 00:33:00;;;;;;;4.43;3.97;;;;;;;19.31;64.85;100590.19;5083487;28;20060;-65
2021/07/13 00:35:26;;;;;;;4.85;4.20;;;;;;;19.30;64.96;100596.34;5084367;28;20476;-66
2021/07/13 00:37:51;;;;;;;4.65;4.25;;;;;;;19.27;64.83;100594.72;5087116;28;20092;-66
2021/07/13 00:40:19;;;;;;;5.47;4.53;;;;;;;19.23;64.97;100593.13;5087561;28;20442;-66
2021/07/13 00:42:47;;;;;;;6.90;5.43;;;;;;;19.24;65.00;100592.22;5087151;28;20047;-66
2021/07/13 00:45:13;;;;;;;8.43;4.80;;;;;;;19.23;64.97;100601.03;5086834;28;20096;-66
2021/07/13 00:47:38;;;;;;;5.80;4.60;;;;;;;19.22;64.93;100599.31;5087060;28;20061;-66
2021/07/13 00:50:05;;;;;;;5.80;4.57;;;;;;;19.25;64.74;100601.81;5086930;28;20020;-66
2021/07/13 00:52:30;;;;;;;5.57;5.07;;;;;;;19.26;64.96;100602.66;5086873;28;20100;-66
2021/07/13 00:54:58;;;;;;;5.65;4.65;;;;;;;19.27;64.96;100599.97;5086880;28;20069;-66
2021/07/13 00:57:23;;;;;;;5.18;4.68;;;;;;;19.25;64.98;100596.53;5086861;28;20050;-66
2021/07/13 00:59:49;;;;;;;5.10;4.60;;;;;;;19.28;64.98;100600.84;5086838;28;20074;-66
2021/07/13 01:02:17;;;;;;;5.78;4.88;;;;;;;19.32;64.70;100594.50;5086914;28;20433;-66
2021/07/13 01:04:46;;;;;;;5.63;4.93;;;;;;;19.32;64.64;100595.38;5086577;28;20025;-65
2021/07/13 01:07:21;;;;;;;5.45;4.80;;;;;;;19.28;64.51;100595.56;5086623;28;20024;-65
2021/07/13 01:09:46;;;;;;;5.20;4.70;;;;;;;19.31;64.75;100598.06;5086631;28;20025;-66
2021/07/13 01:12:48;;;;;;;7.63;4.88;;;;;;;19.31;64.49;100601.53;5086462;28;20107;-65
2021/07/13 01:15:20;;;;;;;5.53;4.68;;;;;;;19.28;64.26;100592.94;5086731;28;20032;-66
2021/07/13 01:18:13;;;;;;;6.88;4.50;;;;;;;19.27;64.39;100593.84;5086700;28;20132;-65
2021/07/13 01:21:17;;;;;;;4.65;4.25;;;;;;;19.31;64.15;100600.72;5085433;28;20028;-66
2021/07/13 01:24:01;;;;;;;5.30;4.65;;;;;;;19.31;64.08;100601.53;5086062;28;20213;-66
2021/07/13 01:26:39;;;;;;;6.38;4.70;;;;;;;19.31;64.07;100605.97;5086125;28;20040;-66
2021/07/13 01:29:11;;;;;;;9.30;4.78;;;;;;;19.30;64.06;100607.75;5086329;28;20031;-66
2021/07/13 01:31:39;;;;;;;5.13;4.32;;;;;;;19.30;64.08;100604.25;5086234;28;20492;-66
2021/07/13 01:34:15;;;;;;;5.65;4.68;;;;;;;19.26;63.99;100603.53;5086213;28;20492;-67
2021/07/13 01:36:46;;;;;;;5.07;4.60;;;;;;;19.22;64.18;100596.66;5086261;28;20020;-67
2021/07/13 01:39:15;;;;;;;5.07;4.57;;;;;;;19.20;64.40;100603.81;5086154;28;20028;-66
2021/07/13 01:41:42;;;;;;;4.55;3.97;;;;;;;19.15;64.57;100598.69;5084736;28;20029;-66
2021/07/13 01:44:10;;;;;;;5.30;4.60;;;;;;;19.12;64.87;100590.94;5084810;28;20024;-66
2021/07/13 01:46:38;;;;;;;5.45;4.40;;;;;;;19.13;64.79;100602.31;5085566;28;20348;-67
2021/07/13 01:49:04;;;;;;;5.78;4.70;;;;;;;19.08;64.74;100595.44;5085987;28;20029;-66
2021/07/13 01:51:32;;;;;;;6.65;4.82;;;;;;;19.11;64.82;100596.25;5085836;28;20024;-67
2021/07/13 01:54:07;;;;;;;5.43;4.90;;;;;;;19.08;64.60;100578.81;5085639;28;20079;-66
2021/07/13 01:56:35;;;;;;;5.10;4.60;;;;;;;19.07;64.68;100585.84;5085712;28;20024;-66
2021/07/13 01:59:03;;;;;;;6.15;4.50;;;;;;;19.10;64.63;100589.28;5085891;28;20561;-66
2021/07/13 02:01:30;;;;;;;4.88;4.38;;;;;;;19.08;64.54;100590.19;5085778;28;20032;-66
2021/07/13 02:03:56;;;;;;;5.38;4.30;;;;;;;19.07;64.76;100587.63;5085760;28;20107;-66
2021/07/13 02:06:24;;;;;;;4.82;4.32;;;;;;;19.08;64.64;100586.69;5085395;28;20025;-67
2021/07/13 02:08:53;;;;;;;5.53;4.93;;;;;;;19.06;64.77;100585.91;5085482;28;20481;-66
2021/07/13 02:11:20;;;;;;;5.22;4.72;;;;;;;19.06;64.43;100586.75;5085525;28;20028;-67
2021/07/13 02:13:45;;;;;;;5.50;4.97;;;;;;;19.03;64.60;100575.50;5085573;28;20085;-66
2021/07/13 02:16:11;;;;;;;5.20;4.70;;;;;;;19.04;64.40;100583.31;5085330;28;20044;-66
2021/07/13 02:18:37;;;;;;;5.28;4.78;;;;;;;19.08;64.47;100579.66;5085336;28;20056;-66
2021/07/13 02:21:04;;;;;;;5.40;4.40;;;;;;;19.10;64.46;100577.00;5085363;28;20028;-66
2021/07/13 02:23:29;;;;;;;5.07;4.43;;;;;;;19.12;64.40;100585.66;5085380;28;20081;-66
2021/07/13 02:25:57;;;;;;;5.95;4.82;;;;;;;19.15;64.16;100574.19;5085135;28;20050;-66
2021/07/13 02:28:34;;;;;;;6.45;5.00;;;;;;;19.17;63.85;100567.09;5085122;28;20097;-65
2021/07/13 02:31:11;;;;;;;6.45;4.43;;;;;;;19.20;63.77;100573.06;5085050;28;20465;-66
2021/07/13 02:33:45;;;;;;;5.57;4.75;;;;;;;19.21;63.92;100568.66;5085123;28;20024;-66
2021/07/13 02:36:15;;;;;;;5.30;4.50;;;;;;;19.20;63.68;100580.94;5084853;28;20446;-66
2021/07/13 02:38:42;;;;;;;5.82;4.82;;;;;;;19.20;63.90;100572.22;5085082;28;20028;-66
2021/07/13 02:41:07;;;;;;;6.53;4.95;;;;;;;19.19;63.98;100573.13;5084960;28;20051;-66
2021/07/13 02:43:35;;;;;;;6.78;4.90;;;;;;;19.15;63.93;100569.75;5085010;28;20025;-66
2021/07/13 02:46:00;;;;;;;5.63;4.85;;;;;;;19.19;63.99;100579.25;5084483;28;20024;-66
2021/07/13 02:48:26;;;;;;;6.10;5.22;;;;;;;19.20;63.82;100578.31;5084771;28;20493;-66
2021/07/13 02:50:55;;;;;;;5.65;4.78;;;;;;;19.21;63.91;100571.28;5084884;28;20445;-65
2021/07/13 02:53:22;;;;;;;6.40;4.93;;;;;;;19.21;64.15;100573.91;5084468;28;20048;-66
2021/07/13 02:55:49;;;;;;;6.72;5.88;;;;;;;19.17;64.00;100578.44;5084519;28;20024;-66
2021/07/13 02:58:15;;;;;;;8.23;5.00;;;;;;;19.13;64.19;100578.63;5084104;28;20024;-66
2021/07/13 03:00:42;;;;;;;6.05;5.10;;;;;;;19.09;64.28;100575.28;5084564;28;20039;-66
2021/07/13 03:03:08;;;;;;;6.15;5.43;;;;;;;19.03;64.51;100573.72;5084751;28;20021;-66
2021/07/13 03:05:34;;;;;;;7.90;5.45;;;;;;;19.03;64.71;100586.03;5084276;28;20017;-66
2021/07/13 03:08:01;;;;;;;9.15;5.70;;;;;;;18.96;64.71;100569.66;5084437;28;20028;-66
2021/07/13 03:10:28;;;;;;;6.70;5.30;;;;;;;18.97;64.81;100563.47;5083171;28;20040;-66
2021/07/13 03:12:55;;;;;;;6.43;4.90;;;;;;;18.97;64.77;100567.88;5084334;28;20105;-66
2021/07/13 03:15:22;;;;;;;5.18;4.68;;;;;;;18.89;64.70;100563.78;5084194;28;20009;-67
2021/07/13 03:17:48;;;;;;;5.28;4.63;;;;;;;18.95;64.71;100565.28;5084405;28;20024;-66
2021/07/13 03:20:13;;;;;;;6.40;4.72;;;;;;;18.95;64.57;100566.16;5084238;28;20028;-67
2021/07/13 03:22:45;;;;;;;6.72;4.85;;;;;;;18.97;64.61;100565.22;5084207;28;20029;-66
2021/07/13 03:25:15;;;;;;;5.22;4.53;;;;;;;18.95;64.89;100555.63;5084077;28;20084;-67
2021/07/13 03:27:41;;;;;;;5.22;4.57;;;;;;;18.99;64.69;100553.75;5084148;28;20070;-66
2021/07/13 03:30:08;;;;;;;5.53;5.03;;;;;;;19.03;64.68;100551.81;5084041;28;20028;-66
2021/07/13 03:32:35;;;;;;;6.57;5.28;;;;;;;19.02;64.55;100543.09;5084052;28;20074;-67
2021/07/13 03:35:00;;;;;;;11.82;5.53;;;;;;;19.03;64.84;100550.06;5082598;28;20027;-67
2021/07/13 03:37:29;;;;;;;6.32;5.25;;;;;;;18.97;64.72;100545.06;5083912;28;20028;-67
2021/07/13 03:39:55;;;;;;;6.53;5.07;;;;;;;19.01;64.91;100556.31;5083983;28;20059;-67
2021/07/13 03:42:22;;;;;;;6.25;4.90;;;;;;;19.02;64.87;100555.38;5083703;28;20020;-67
2021/07/13 03:44:49;;;;;;;5.70;5.03;;;;;;;19.03;65.14;100554.44;5083720;28;20373;-67
2021/07/13 03:47:15;;;;;;;7.68;5.20;;;;;;;19.04;65.13;100557.03;5082252;28;20098;-67
2021/07/13 03:49:43;;;;;;;6.13;4.75;;;;;;;19.04;65.18;100549.13;5083573;28;20469;-67
2021/07/13 03:52:09;;;;;;;5.82;5.22;;;;;;;19.05;65.31;100556.13;5083575;28;20477;-67
2021/07/13 03:54:34;;;;;;;5.93;5.05;;;;;;;19.01;65.18;100549.25;5083491;28;20031;-68
2021/07/13 03:57:01;;;;;;;6.68;5.53;;;;;;;18.99;65.12;100553.75;5083581;28;20126;-68
2021/07/13 03:59:26;;;;;;;5.55;5.05;;;;;;;18.95;65.31;100557.41;5083352;28;20357;-68
2021/07/13 04:01:52;;;;;;;5.35;4.88;;;;;;;18.92;65.36;100552.28;5083433;28;20024;-66
2021/07/13 04:04:17;;;;;;;5.65;5.15;;;;;;;18.97;65.47;100550.31;5083281;28;20084;-66
2021/07/13 04:06:42;;;;;;;5.53;5.00;;;;;;;19.02;65.49;100550.13;5083232;28;20036;-68
2021/07/13 04:09:08;;;;;;;6.30;5.13;;;;;;;19.02;65.37;100544.84;5083587;28;20028;-69
2021/07/13 04:11:35;;;;;;;5.53;4.95;;;;;;;19.11;65.17;100548.91;5083307;28;20106;-68
2021/07/13 04:14:01;;;;;;;5.45;4.25;;;;;;;19.26;65.04;100529.84;5083405;28;20032;-68
2021/07/13 04:16:27;;;;;;;5.90;5.30;;;;;;;19.48;64.81;100547.31;5083114;28;20119;-67
2021/07/13 04:18:52;;;;;;;4.63;4.18;;;;;;;19.90;64.68;100545.50;5083276;28;20051;-69
2021/07/13 04:21:17;;;;;;;6.47;4.95;;;;;;;20.27;63.50;100547.38;5079138;28;20522;-68
2021/07/13 04:23:43;;;;;;;4.60;4.20;;;;;;;20.39;62.63;100551.19;5063160;28;20017;-68
2021/07/13 04:26:08;;;;;;;6.00;4.95;;;;;;;20.45;62.28;100565.88;5063083;28;20610;-68
2021/07/13 04:28:34;;;;;;;4.90;4.40;;;;;;;20.51;62.01;100565.59;5063175;28;20021;-66
2021/07/13 04:31:00;;;;;;;4.97;4.50;;;;;;;20.55;61.97;100575.06;5061975;28;20442;-68
2021/07/13 04:33:26;;;;;;;4.63;4.22;;;;;;;20.60;61.25;100567.78;5063077;28;20021;-67
2021/07/13 04:35:52;;;;;;;5.30;4.80;;;;;;;20.60;60.80;100559.00;5062887;28;20051;-67
2021/07/13 04:38:18;;;;;;;6.20;4.35;;;;;;;20.63;60.41;100553.56;5063109;28;20025;-67
2021/07/13 04:40:44;;;;;;;6.82;4.45;;;;;;;20.65;60.05;100557.00;5062905;28;20032;-67
2021/07/13 04:43:10;;;;;;;4.32;3.92;;;;;;;20.65;60.33;100567.56;5062987;28;20021;-67
2021/07/13 04:45:39;;;;;;;5.63;4.07;;;;;;;20.67;59.86;100560.44;5062710;28;20036;-67
2021/07/13 04:48:05;;;;;;;6.03;3.95;;;;;;;20.71;59.99;100561.13;5062092;28;20060;-67
2021/07/13 04:50:31;;;;;;;5.28;4.03;;;;;;;20.76;59.96;100559.97;5063205;28;20025;-67
2021/07/13 04:52:56;;;;;;;5.03;4.53;;;;;;;20.80;59.58;100553.59;5062844;28;20104;-68
2021/07/13 04:55:21;;;;;;;5.60;4.15;;;;;;;20.87;59.37;100540.13;5062784;28;20063;-67
2021/07/13 04:57:47;;;;;;;6.10;4.57;;;;;;;20.94;58.45;100557.41;5062707;28;20028;-66
2021/07/13 05:00:13;;;;;;;4.55;4.03;;;;;;;20.91;58.18;100553.09;5062607;28;20032;-64
2021/07/13 05:02:39;;;;;;;3.95;3.60;;;;;;;21.10;58.23;100548.69;5062658;28;20021;-65
2021/07/13 05:05:06;;;;;;;4.65;3.67;;;;;;;21.38;57.76;100545.50;5062728;28;20029;-65
2021/07/13 05:07:31;;;;;;;7.32;4.15;;;;;;;21.79;56.67;100533.69;5062748;28;20044;-65
2021/07/13 05:09:57;;;;;;;5.18;3.47;;;;;;;22.39;55.25;100530.47;5062956;28;20048;-65
2021/07/13 05:12:22;;;;;;;3.80;3.28;;;;;;;23.11;53.49;100531.72;5062852;28;20108;-65
2021/07/13 05:14:48;;;;;;;4.50;3.55;;;;;;;23.73;52.29;100538.59;5062916;28;20085;-65
2021/07/13 05:17:13;;;;;;;4.07;3.00;;;;;;;24.12;49.88;100543.28;5062840;28;20252;-65
2021/07/13 05:19:40;;;;;;;5.07;3.33;;;;;;;24.05;49.60;100540.19;5062777;28;20410;-64
2021/07/13 05:22:08;;;;;;;4.65;3.30;;;;;;;24.09;49.57;100532.88;5065266;28;20032;-65
2021/07/13 05:24:34;;;;;;;4.50;3.55;;;;;;;24.16;49.26;100522.75;5066268;28;20032;-65
2021/07/13 05:26:59;;;;;;;4.95;3.47;;;;;;;24.13;49.33;100523.78;5066045;28;20025;-67
2021/07/13 05:29:25;;;;;;;5.10;3.40;;;;;;;23.93;49.37;100522.41;5066157;28;20025;-65
2021/07/13 05:31:50;;;;;;;6.97;3.67;;;;;;;23.75;49.81;100518.13;5066119;28;20479;-65
2021/07/13 05:34:16;;;;;;;4.35;3.22;;;;;;;23.72;50.00;100515.69;5066136;28;20024;-66
2021/07/13 05:36:41;;;;;;;4.38;3.50;;;;;;;23.87;50.04;100515.66;5065951;28;20021;-66
2021/07/13 05:39:08;;;;;;;5.20;3.67;;;;;;;24.05;49.49;100518.97;5065345;28;20510;-66
2021/07/13 05:41:34;;;;;;;4.38;3.25;;;;;;;24.29;49.14;100506.88;5065956;28;20421;-65
2021/07/13 05:43:59;;;;;;;3.90;3.13;;;;;;;24.72;48.20;100512.03;5066180;28;20509;-65
2021/07/13 05:46:25;;;;;;;4.32;3.58;;;;;;;25.00;47.88;100510.19;5065870;28;20039;-65
2021/07/13 05:48:51;;;;;;;4.22;3.30;;;;;;;25.44;46.60;100504.56;5066279;28;20056;-65
2021/07/13 05:51:17;;;;;;;5.72;4.00;;;;;;;25.70;46.15;100503.72;5066082;28;20067;-66
2021/07/13 05:53:42;;;;;;;3.83;3.53;;;;;;;25.87;45.54;100502.50;5065723;28;20037;-65
2021/07/13 05:56:08;;;;;;;3.53;3.22;;;;;;;26.03;45.17;100493.41;5065597;28;20025;-66
2021/07/13 05:58:35;;;;;;;3.88;3.47;;;;;;;26.18;45.13;100491.44;5065967;28;20029;-65
2021/07/13 06:01:00;;;;;;;4.88;3.33;;;;;;;26.30;44.91;100495.84;5065593;28;20056;-66
2021/07/13 06:03:26;;;;;;;5.90;3.85;;;;;;;26.29;44.90;100496.81;5065735;28;20021;-65
2021/07/13 06:05:51;;;;;;;3.38;2.90;;;;;;;26.16;45.30;100494.22;5065491;28;20020;-66
2021/07/13 06:08:16;;;;;;;5.07;3.45;;;;;;;25.96;44.94;100499.16;5065761;28;20031;-65
2021/07/13 06:10:42;;;;;;;5.03;3.40;;;;;;;25.78;45.14;100500.50;5065750;28;20115;-66
2021/07/13 06:13:07;;;;;;;4.15;3.13;;;;;;;25.53;45.32;100502.22;5065420;28;20119;-64
2021/07/13 06:15:32;;;;;;;4.50;3.40;;;;;;;25.27;46.21;100494.25;5064000;28;20017;-66
2021/07/13 06:17:58;;;;;;;4.68;3.70;;;;;;;25.14;46.83;100508.41;5065723;28;20051;-66
2021/07/13 06:20:23;;;;;;;3.45;3.13;;;;;;;25.21;47.13;100501.69;5065562;28;20059;-65
2021/07/13 06:22:49;;;;;;;4.35;3.50;;;;;;;25.42;46.84;100506.47;5065433;28;20021;-65
2021/07/13 06:25:14;;;;;;;5.03;2.80;;;;;;;25.90;46.26;100496.94;5065063;28;20517;-65
2021/07/13 06:27:40;;;;;;;3.47;3.17;;;;;;;26.24;45.47;100490.97;5065325;28;20020;-66
2021/07/13 06:30:07;;;;;;;4.20;3.13;;;;;;;26.81;45.11;100493.03;5065095;28;20021;-65
2021/07/13 06:32:33;;;;;;;6.15;3.88;;;;;;;27.54;42.93;100499.94;5063920;28;20033;-65
2021/07/13 06:34:59;;;;;;;3.83;3.42;;;;;;;27.74;42.35;100505.50;5064874;28;20114;-65
2021/07/13 06:37:24;;;;;;;4.65;3.28;;;;;;;27.86;41.80;100504.50;5064649;28;20029;-65
2021/07/13 06:39:49;;;;;;;4.55;3.00;;;;;;;27.92;41.65;100505.84;5064776;28;20021;-65
2021/07/13 06:42:15;;;;;;;3.83;3.42;;;;;;;28.07;41.77;100514.41;5064685;28;20040;-65
2021/07/13 06:44:40;;;;;;;3.33;3.03;;;;;;;28.21;41.48;100507.97;5064684;28;20025;-64
2021/07/13 06:47:06;;;;;;;5.38;3.50;;;;;;;28.47;40.53;100501.47;5064428;28;20052;-66
2021/07/13 06:49:31;;;;;;;3.55;3.15;;;;;;;28.50;40.95;100503.91;5064574;28;20033;-65
2021/07/13 06:51:57;;;;;;;3.42;3.10;;;;;;;28.91;40.79;100512.06;5064363;28;20290;-65
2021/07/13 06:54:22;;;;;;;3.63;2.95;;;;;;;29.53;38.88;100508.59;5064120;28;20045;-64
2021/07/13 06:56:47;;;;;;;3.33;3.03;;;;;;;29.46;38.54;100507.44;5064369;28;20010;-65
2021/07/13 06:59:13;;;;;;;4.18;3.35;;;;;;;29.58;38.90;100517.09;5064313;28;20033;-66
2021/07/13 07:01:38;;;;;;;4.20;3.45;;;;;;;29.68;39.01;100507.25;5064251;28;20035;-65
2021/07/13 07:04:04;;;;;;;3.97;3.40;;;;;;;30.08;38.14;100495.81;5064374;28;20024;-65
2021/07/13 07:06:30;;;;;;;3.85;3.10;;;;;;;30.10;37.58;100494.66;5064001;28;20488;-65
2021/07/13 07:08:56;;;;;;;4.63;3.47;;;;;;;29.77;37.31;100488.69;5064352;28;20078;-65
2021/07/13 07:11:21;;;;;;;4.45;3.15;;;;;;;29.05;38.38;100493.03;5064043;28;20025;-65
2021/07/13 07:13:46;;;;;;;4.70;3.17;;;;;;;28.35;39.85;100485.50;5064061;28;20028;-64
2021/07/13 07:16:12;;;;;;;3.65;3.30;;;;;;;27.88;40.88;100475.91;5064076;28;20013;-65
2021/07/13 07:18:37;;;;;;;4.45;3.47;;;;;;;27.68;41.63;100469.53;5063880;28;20078;-65
2021/07/13 07:21:03;;;;;;;5.20;3.58;;;;;;;27.47;41.93;100457.78;5064028;28;20088;-64
2021/07/13 07:23:28;;;;;;;4.72;3.35;;;;;;;27.14;42.92;100462.09;5063827;28;20017;-65
2021/07/13 07:25:53;;;;;;;3.85;3.17;;;;;;;26.87;43.71;100460.59;5063628;28;20068;-65
2021/07/13 07:28:20;;;;;;;4.60;3.63;;;;;;;26.85;44.44;100467.88;5064015;28;20028;-65
2021/07/13 07:30:45;;;;;;;3.63;3.05;;;;;;;26.88;44.07;100462.31;5063713;28;20071;-64
2021/07/13 07:33:11;;;;;;;4.80;3.38;;;;;;;26.89;44.18;100457.81;5063861;28;20029;-65
2021/07/13 07:35:36;;;;;;;4.47;3.67;;;;;;;26.76;44.50;100445.44;5063256;28;20028;-65
2021/07/13 07:38:02;;;;;;;4.25;3.70;;;;;;;26.69;44.85;100445.09;5063696;28;20025;-66
2021/07/13 07:40:27;;;;;;;4.00;3.58;;;;;;;26.82;44.94;100442.31;5063302;28;20079;-65
2021/07/13 07:42:55;;;;;;;4.95;3.28;;;;;;;26.87;44.75;100441.94;5063545;28;20059;-65
2021/07/13 07:45:22;;;;;;;3.45;3.10;;;;;;;26.82;44.63;100441.47;5063256;28;20138;-65
2021/07/13 07:47:49;;;;;;;7.43;3.45;;;;;;;26.78;45.41;100448.00;5063719;28;20024;-65
2021/07/13 07:50:15;;;;;;;4.38;3.97;;;;;;;27.01;45.20;100448.94;5063405;28;20020;-64
2021/07/13 07:52:41;;;;;;;4.57;3.42;;;;;;;27.26;44.82;100447.00;5062901;28;20045;-65
2021/07/13 07:55:08;;;;;;;4.28;3.63;;;;;;;27.57;44.67;100447.19;5063132;28;20071;-65
2021/07/13 07:57:34;;;;;;;5.55;3.78;;;;;;;28.10;44.49;100444.78;5063323;28;20021;-64
2021/07/13 07:59:59;;;;;;;4.13;2.90;;;;;;;28.76;42.57;100458.94;5063476;28;20450;-66
2021/07/13 08:02:25;;;;;;;3.67;3.38;;;;;;;28.84;41.65;100455.63;5063219;28;20028;-66
2021/07/13 08:04:50;;;;;;;3.92;3.40;;;;;;;28.79;41.84;100452.50;5063093;28;20024;-65
2021/07/13 08:07:18;;;;;;;5.47;3.35;;;;;;;28.91;41.83;100454.13;5061523;28;20135;-66
2021/07/13 08:09:43;;;;;;;3.58;3.13;;;;;;;29.19;41.55;100459.78;5062826;28;20029;-65
2021/07/13 08:12:09;;;;;;;4.22;3.70;;;;;;;29.38;41.17;100449.31;5063294;28;20035;-66
2021/07/13 08:14:34;;;;;;;5.68;3.30;;;;;;;29.59;40.63;100443.03;5063453;28;20031;-66
2021/07/13 08:16:59;;;;;;;3.65;3.10;;;;;;;29.60;39.66;100461.66;5063388;28;20025;-65
2021/07/13 08:19:25;;;;;;;4.00;3.00;;;;;;;29.34;40.54;100454.06;5063316;28;20118;-66
2021/07/13 08:21:50;;;;;;;3.08;2.60;;;;;;;29.36;40.47;100449.44;5063058;28;20075;-65
2021/07/13 08:24:16;;;;;;;3.47;2.90;;;;;;;29.30;40.17;100460.66;5063215;28;20598;-66
2021/07/13 08:26:42;;;;;;;3.33;3.03;;;;;;;29.09;40.61;100450.03;5062879;28;20025;-65
2021/07/13 08:29:07;;;;;;;3.33;2.70;;;;;;;28.91;40.40;100451.47;5063073;28;20396;-67
2021/07/13 08:31:33;;;;;;;3.97;3.40;;;;;;;28.68;40.42;100456.94;5062940;28;20095;-66
2021/07/13 08:33:59;;;;;;;5.35;3.13;;;;;;;28.67;41.58;100449.91;5062963;28;20488;-66
2021/07/13 08:36:24;;;;;;;3.72;3.28;;;;;;;28.86;40.98;100442.97;5062787;28;20017;-65
2021/07/13 08:38:50;;;;;;;4.50;3.08;;;;;;;29.05;40.91;100449.44;5063024;28;20028;-65
2021/07/13 08:41:25;;;;;;;5.40;3.20;;;;;;;29.04;40.51;100437.88;5062780;28;20017;-66
2021/07/13 08:43:51;;;;;;;3.83;2.80;;;;;;;28.85;40.51;100435.94;5062820;28;20082;-65
2021/07/13 08:46:18;;;;;;;4.18;3.03;;;;;;;28.53;41.49;100427.03;5062999;28;20444;-65
2021/07/13 08:48:47;;;;;;;3.88;3.00;;;;;;;28.34;41.80;100422.41;5063271;28;20027;-66
2021/07/13 08:51:12;;;;;;;5.15;3.08;;;;;;;28.26;42.32;100419.53;5062970;28;20025;-67
2021/07/13 08:53:37;;;;;;;6.72;3.28;;;;;;;28.54;42.56;100417.19;5062875;28;20037;-67
2021/07/13 08:56:03;;;;;;;7.97;3.42;;;;;;;28.67;42.00;100412.53;5063366;28;20032;-66
2021/07/13 08:58:28;;;;;;;5.55;3.85;;;;;;;28.80;41.90;100398.09;5067157;28;20100;-66
2021/07/13 09:00:54;;;;;;;10.32;3.95;;;;;;;28.89;41.39;100409.81;5066921;28;20025;-66
2021/07/13 09:03:21;;;;;;;5.45;3.50;;;;;;;28.91;41.84;100403.38;5066837;28;20021;-65
2021/07/13 09:05:52;;;;;;;4.35;3.70;;;;;;;29.18;40.97;100409.97;5066146;28;20052;-65
2021/07/13 09:08:23;;;;;;;6.18;3.72;;;;;;;29.39;40.40;100393.03;5066353;28;20056;-65
2021/07/13 09:10:58;;;;;;;;;;;;;;;29.66;40.01;100386.19;5066873;28;20104;-66
2021/07/13 09:13:25;;;;;;;5.97;3.85;;;;;;;29.67;40.23;100395.91;5066584;28;20380;-66
2021/07/13 09:15:59;;;;;;;5.72;4.20;;;;;;;29.78;40.65;100396.75;5066358;28;20440;-65
2021/07/13 09:18:30;;;;;;;9.50;3.55;;;;;;;30.05;39.99;100395.19;5066525;28;20032;-66
2021/07/13 09:21:13;;;;;;;4.20;3.40;;;;;;;30.00;39.55;100400.97;5065360;28;20025;-66
2021/07/13 09:24:17;;;;;;;5.40;3.72;;;;;;;29.69;39.57;100401.13;5066466;28;20040;-66
2021/07/13 09:26:48;;;;;;;6.57;3.80;;;;;;;29.23;41.18;100401.56;5066075;28;20025;-66
2021/07/13 09:29:41;;;;;;;5.90;3.65;;;;;;;29.14;41.69;100392.50;5066398;28;20017;-66
2021/07/13 09:32:31;;;;;;;5.22;3.88;;;;;;;29.30;41.62;100396.47;5066307;28;20029;-65
2021/07/13 09:35:13;;;;;;;6.90;3.95;;;;;;;29.29;41.43;100386.78;5066112;28;20048;-66
2021/07/13 09:37:48;;;;;;;4.85;3.13;;;;;;;29.17;41.67;100388.72;5066326;28;20041;-66
2021/07/13 09:40:19;;;;;;;4.90;3.20;;;;;;;29.11;41.75;100383.94;5065993;28;20021;-66
2021/07/13 09:42:53;;;;;;;6.28;3.10;;;;;;;29.11;41.63;100382.09;5066191;28;20045;-66
2021/07/13 09:45:20;;;;;;;5.90;3.20;;;;;;;29.03;41.35;100393.44;5066107;28;20053;-66
2021/07/13 09:47:47;;;;;;;8.73;3.67;;;;;;;28.95;41.61;100383.44;5066019;28;20035;-66
2021/07/13 09:50:28;;;;;;;4.50;3.95;;;;;;;29.19;41.31;100384.06;5066286;28;20028;-66
2021/07/13 09:53:01;;;;;;;9.10;3.80;;;;;;;29.36;41.26;100379.94;5065594;28;20053;-66
2021/07/13 09:55:28;;;;;;;4.28;3.47;;;;;;;29.55;41.04;100378.25;5065855;28;20047;-66
2021/07/13 09:58:06;;;;;;;3.88;3.40;;;;;;;29.72;41.42;100381.25;5066105;28;20069;-66
2021/07/13 10:00:31;;;;;;;3.85;3.47;;;;;;;30.15;39.92;100379.13;5065735;28;20029;-66
2021/07/13 10:02:57;;;;;;;5.43;3.53;;;;;;;30.14;39.89;100382.81;5065717;28;20052;-66
2021/07/13 10:05:24;;;;;;;3.92;3.35;;;;;;;30.11;39.53;100396.47;5065443;28;20025;-66
2021/07/13 10:07:50;;;;;;;3.95;3.53;;;;;;;30.05;39.26;100397.88;5065533;28;20051;-67
2021/07/13 10:10:15;;;;;;;3.20;2.88;;;;;;;29.96;38.96;100382.69;5064348;28;20029;-66
2021/07/13 10:12:40;;;;;;;5.97;4.35;;;;;;;29.85;38.54;100389.00;5065572;28;20080;-67
2021/07/13 10:15:06;;;;;;;5.05;3.58;;;;;;;29.68;39.28;100370.84;5065453;28;20056;-67
2021/07/13 10:17:32;;;;;;;6.10;3.95;;;;;;;29.80;39.52;100386.75;5065377;28;20036;-67
2021/07/13 10:19:57;;;;;;;4.63;4.00;;;;;;;29.74;39.22;100380.16;5065439;28;20052;-67
2021/07/13 10:22:25;;;;;;;4.53;4.10;;;;;;;29.78;39.97;100361.97;5065262;28;20120;-66
2021/07/13 10:24:55;;;;;;;6.85;4.00;;;;;;;29.95;39.98;100360.44;5065721;28;20055;-67
2021/07/13 10:27:28;;;;;;;4.90;3.47;;;;;;;30.34;38.43;100372.94;5065475;28;20124;-67
2021/07/13 10:29:55;;;;;;;4.97;3.42;;;;;;;30.29;38.52;100375.22;5065470;28;20031;-67
2021/07/13 10:32:24;;;;;;;4.90;3.80;;;;;;;30.12;38.74;100379.44;5065116;28;20086;-67
2021/07/13 10:34:55;;;;;;;5.78;4.15;;;;;;;30.00;39.39;100371.53;5065449;28;20049;-67
2021/07/13 10:37:31;;;;;;;4.05;3.63;;;;;;;30.18;39.85;100378.84;5065257;28;20079;-67
2021/07/13 10:40:05;;;;;;;4.68;3.90;;;;;;;29.99;39.73;100379.72;5065177;28;20108;-67
2021/07/13 10:42:43;;;;;;;5.20;3.97;;;;;;;29.39;41.11;100374.31;5065148;28;20017;-67
2021/07/13 10:45:18;;;;;;;4.43;3.90;;;;;;;28.91;42.36;100384.66;5064851;28;20033;-67
2021/07/13 10:48:21;;;;;;;8.27;4.05;;;;;;;28.81;42.94;100387.28;5064827;28;20028;-67
2021/07/13 10:50:53;;;;;;;5.65;4.70;;;;;;;29.14;42.02;100392.50;5064763;28;20028;-67
2021/07/13 10:53:39;;;;;;;4.88;3.92;;;;;;;28.90;42.46;100379.47;5064637;28;20080;-67
2021/07/13 10:56:17;;;;;;;4.50;4.03;;;;;;;28.81;43.10;100389.09;5064887;28;20025;-68
2021/07/13 10:58:52;;;;;;;6.35;4.35;;;;;;;28.63;43.33;100388.88;5064781;28;20046;-67
2021/07/13 11:01:26;;;;;;;6.55;4.32;;;;;;;28.21;44.18;100399.38;5064950;28;20025;-66
2021/07/13 11:04:03;;;;;;;5.78;4.60;;;;;;;27.75;44.90;100390.72;5064781;28;20480;-67
2021/07/13 11:06:43;;;;;;;6.25;4.32;;;;;;;27.56;45.11;100412.66;5064536;28;20021;-67
2021/07/13 11:09:23;;;;;;;4.32;3.92;;;;;;;27.36;45.17;100393.81;5064594;28;20461;-67
2021/07/13 11:11:49;;;;;;;5.95;4.30;;;;;;;27.24;46.05;100400.13;5064600;28;20088;-67
2021/07/13 11:14:15;;;;;;;4.63;4.03;;;;;;;27.30;45.90;100391.63;5064453;28;20207;-66
2021/07/13 11:16:43;;;;;;;5.43;4.22;;;;;;;27.46;46.26;100381.41;5063955;28;20036;-67
2021/07/13 11:19:16;;;;;;;4.53;4.13;;;;;;;27.78;46.20;100387.78;5063689;28;20505;-67
2021/07/13 11:21:45;;;;;;;6.88;4.63;;;;;;;27.92;46.03;100386.66;5064518;28;20401;-67
2021/07/13 11:24:16;;;;;;;4.97;4.40;;;;;;;27.88;45.74;100390.56;5064423;28;20047;-67
2021/07/13 11:26:45;;;;;;;5.78;4.88;;;;;;;27.75;45.77;100400.56;5063774;28;20035;-67
2021/07/13 11:29:21;;;;;;;7.10;5.38;;;;;;;27.67;46.28;100380.69;5064481;28;20025;-66